sensor_id;sensor_type;location;lat;lon;timestamp;P1;durP1;ratioP1;P2;durP2;ratioP2
46777;SDS011;32536;47.128;8.746;2022-07-23T00:00:22;7.72;;;4.15;;
46777;SDS011;32536;47.128;8.746;2022-07-23T00:02:50;5.60;;;3.17;;
46777;SDS011;32536;47.128;8.746;2022-07-23T00:05:17;5.55;;;2.58;;
46777;SDS011;32536;47.128;8.746;2022-07-23T00:07:43;4.45;;;2.17;;
46777;SDS011;32536;47.128;8.746;2022-07-23T00:10:10;4.80;;;2.83;;
46777;SDS011;32536;47.128;8.746;2022-07-23T00:12:37;4.20;;;1.85;;
46777;SDS011;32536;47.128;8.746;2022-07-23T00:15:05;8.00;;;4.40;;
46777;SDS011;32536;47.128;8.746;2022-07-23T00:17:33;9.88;;;5.72;;
46777;SDS011;32536;47.128;8.746;2022-07-23T00:20:00;7.88;;;4.38;;
46777;SDS011;32536;47.128;8.746;2022-07-23T00:22:28;5.85;;;3.28;;
46777;SDS011;32536;47.128;8.746;2022-07-23T00:24:55;5.75;;;3.22;;
46777;SDS011;32536;47.128;8.746;2022-07-23T00:27:23;4.88;;;2.63;;
46777;SDS011;32536;47.128;8.746;2022-07-23T00:29:50;5.35;;;2.47;;
46777;SDS011;32536;47.128;8.746;2022-07-23T00:32:17;8.63;;;5.28;;
46777;SDS011;32536;47.128;8.746;2022-07-23T00:34:44;6.68;;;3.35;;
46777;SDS011;32536;47.128;8.746;2022-07-23T00:37:10;4.20;;;2.28;;
46777;SDS011;32536;47.128;8.746;2022-07-23T00:39:37;4.35;;;1.90;;
46777;SDS011;32536;47.128;8.746;2022-07-23T00:42:04;5.88;;;3.15;;
46777;SDS011;32536;47.128;8.746;2022-07-23T00:44:31;7.63;;;4.25;;
46777;SDS011;32536;47.128;8.746;2022-07-23T00:46:58;5.20;;;3.03;;
46777;SDS011;32536;47.128;8.746;2022-07-23T00:49:26;9.20;;;5.60;;
46777;SDS011;32536;47.128;8.746;2022-07-23T00:51:55;7.47;;;4.82;;
46777;SDS011;32536;47.128;8.746;2022-07-23T00:54:25;7.43;;;4.63;;
46777;SDS011;32536;47.128;8.746;2022-07-23T00:56:53;7.25;;;4.35;;
46777;SDS011;32536;47.128;8.746;2022-07-23T00:59:20;9.82;;;5.22;;
46777;SDS011;32536;47.128;8.746;2022-07-23T01:01:47;7.30;;;3.92;;
46777;SDS011;32536;47.128;8.746;2022-07-23T01:04:15;6.88;;;3.67;;
46777;SDS011;32536;47.128;8.746;2022-07-23T01:06:42;6.88;;;3.60;;
46777;SDS011;32536;47.128;8.746;2022-07-23T01:09:11;5.03;;;2.67;;
46777;SDS011;32536;47.128;8.746;2022-07-23T01:11:38;6.13;;;3.35;;
46777;SDS011;32536;47.128;8.746;2022-07-23T01:14:12;6.65;;;4.03;;
46777;SDS011;32536;47.128;8.746;2022-07-23T01:16:42;10.70;;;6.63;;
46777;SDS011;32536;47.128;8.746;2022-07-23T01:19:11;9.52;;;6.03;;
46777;SDS011;32536;47.128;8.746;2022-07-23T01:21:39;9.45;;;6.07;;
46777;SDS011;32536;47.128;8.746;2022-07-23T01:24:11;8.27;;;4.78;;
46777;SDS011;32536;47.128;8.746;2022-07-23T01:26:43;7.38;;;4.28;;
46777;SDS011;32536;47.128;8.746;2022-07-23T01:29:11;6.80;;;3.85;;
46777;SDS011;32536;47.128;8.746;2022-07-23T01:31:39;7.15;;;3.60;;
46777;SDS011;32536;47.128;8.746;2022-07-23T01:34:07;6.95;;;4.28;;
46777;SDS011;32536;47.128;8.746;2022-07-23T01:36:34;6.78;;;3.67;;
46777;SDS011;32536;47.128;8.746;2022-07-23T01:39:03;6.63;;;3.72;;
46777;SDS011;32536;47.128;8.746;2022-07-23T01:41:32;6.75;;;4.15;;
46777;SDS011;32536;47.128;8.746;2022-07-23T01:43:59;10.20;;;5.80;;
46777;SDS011;32536;47.128;8.746;2022-07-23T01:46:26;7.40;;;5.30;;
46777;SDS011;32536;47.128;8.746;2022-07-23T01:48:53;7.93;;;5.22;;
46777;SDS011;32536;47.128;8.746;2022-07-23T01:51:20;5.97;;;3.90;;
46777;SDS011;32536;47.128;8.746;2022-07-23T01:53:46;5.68;;;3.15;;
46777;SDS011;32536;47.128;8.746;2022-07-23T01:56:13;4.53;;;2.22;;
46777;SDS011;32536;47.128;8.746;2022-07-23T01:58:40;5.38;;;3.03;;
46777;SDS011;32536;47.128;8.746;2022-07-23T02:01:07;5.70;;;2.80;;
46777;SDS011;32536;47.128;8.746;2022-07-23T02:03:34;5.22;;;2.88;;
46777;SDS011;32536;47.128;8.746;2022-07-23T02:06:01;7.50;;;3.80;;
46777;SDS011;32536;47.128;8.746;2022-07-23T02:08:27;6.85;;;4.15;;
46777;SDS011;32536;47.128;8.746;2022-07-23T02:10:54;4.88;;;2.90;;
46777;SDS011;32536;47.128;8.746;2022-07-23T02:13:21;5.70;;;3.28;;
46777;SDS011;32536;47.128;8.746;2022-07-23T02:15:48;4.45;;;2.33;;
46777;SDS011;32536;47.128;8.746;2022-07-23T02:18:15;4.07;;;1.90;;
46777;SDS011;32536;47.128;8.746;2022-07-23T02:20:41;5.63;;;2.92;;
46777;SDS011;32536;47.128;8.746;2022-07-23T02:23:10;5.80;;;2.92;;
46777;SDS011;32536;47.128;8.746;2022-07-23T02:25:36;4.45;;;2.03;;
46777;SDS011;32536;47.128;8.746;2022-07-23T02:28:03;5.18;;;2.83;;
46777;SDS011;32536;47.128;8.746;2022-07-23T02:30:31;5.25;;;2.70;;
46777;SDS011;32536;47.128;8.746;2022-07-23T02:32:58;5.05;;;2.20;;
46777;SDS011;32536;47.128;8.746;2022-07-23T02:35:25;6.03;;;2.85;;
46777;SDS011;32536;47.128;8.746;2022-07-23T02:37:52;5.85;;;3.38;;
46777;SDS011;32536;47.128;8.746;2022-07-23T02:40:18;5.60;;;3.42;;
46777;SDS011;32536;47.128;8.746;2022-07-23T02:42:45;5.22;;;1.83;;
46777;SDS011;32536;47.128;8.746;2022-07-23T02:45:12;5.47;;;3.20;;
46777;SDS011;32536;47.128;8.746;2022-07-23T02:47:39;5.68;;;3.08;;
46777;SDS011;32536;47.128;8.746;2022-07-23T02:50:06;4.88;;;2.70;;
46777;SDS011;32536;47.128;8.746;2022-07-23T02:52:33;4.63;;;2.60;;
46777;SDS011;32536;47.128;8.746;2022-07-23T02:55:00;6.55;;;3.17;;
46777;SDS011;32536;47.128;8.746;2022-07-23T02:57:27;4.45;;;2.28;;
46777;SDS011;32536;47.128;8.746;2022-07-23T02:59:54;4.20;;;2.15;;
46777;SDS011;32536;47.128;8.746;2022-07-23T03:02:21;2.80;;;1.25;;
46777;SDS011;32536;47.128;8.746;2022-07-23T03:04:47;4.22;;;2.08;;
46777;SDS011;32536;47.128;8.746;2022-07-23T03:07:16;3.35;;;1.70;;
46777;SDS011;32536;47.128;8.746;2022-07-23T03:09:45;2.65;;;1.48;;
46777;SDS011;32536;47.128;8.746;2022-07-23T03:12:12;3.63;;;1.67;;
46777;SDS011;32536;47.128;8.746;2022-07-23T03:14:40;3.42;;;1.83;;
46777;SDS011;32536;47.128;8.746;2022-07-23T03:17:08;3.17;;;1.23;;
46777;SDS011;32536;47.128;8.746;2022-07-23T03:19:35;6.72;;;4.03;;
46777;SDS011;32536;47.128;8.746;2022-07-23T03:22:03;5.32;;;2.55;;
46777;SDS011;32536;47.128;8.746;2022-07-23T03:24:30;6.15;;;3.45;;
46777;SDS011;32536;47.128;8.746;2022-07-23T03:27:15;5.85;;;3.20;;
46777;SDS011;32536;47.128;8.746;2022-07-23T03:29:42;5.53;;;3.00;;
46777;SDS011;32536;47.128;8.746;2022-07-23T03:32:09;6.15;;;3.53;;
46777;SDS011;32536;47.128;8.746;2022-07-23T03:34:36;8.55;;;3.40;;
46777;SDS011;32536;47.128;8.746;2022-07-23T03:37:03;5.57;;;3.05;;
46777;SDS011;32536;47.128;8.746;2022-07-23T03:39:29;4.97;;;2.75;;
46777;SDS011;32536;47.128;8.746;2022-07-23T03:41:56;4.47;;;1.98;;
46777;SDS011;32536;47.128;8.746;2022-07-23T03:44:23;4.50;;;1.88;;
46777;SDS011;32536;47.128;8.746;2022-07-23T03:46:50;4.18;;;2.15;;
46777;SDS011;32536;47.128;8.746;2022-07-23T03:49:17;3.85;;;1.95;;
46777;SDS011;32536;47.128;8.746;2022-07-23T03:51:43;4.57;;;2.00;;
46777;SDS011;32536;47.128;8.746;2022-07-23T03:54:10;5.03;;;2.72;;
46777;SDS011;32536;47.128;8.746;2022-07-23T03:56:37;3.97;;;1.98;;
46777;SDS011;32536;47.128;8.746;2022-07-23T03:59:04;4.47;;;1.92;;
46777;SDS011;32536;47.128;8.746;2022-07-23T04:01:31;4.00;;;1.70;;
46777;SDS011;32536;47.128;8.746;2022-07-23T04:03:58;3.63;;;1.40;;
46777;SDS011;32536;47.128;8.746;2022-07-23T04:06:25;4.05;;;1.80;;
46777;SDS011;32536;47.128;8.746;2022-07-23T04:08:51;4.78;;;2.72;;
46777;SDS011;32536;47.128;8.746;2022-07-23T04:11:18;4.18;;;1.88;;
46777;SDS011;32536;47.128;8.746;2022-07-23T04:13:45;4.78;;;2.08;;
46777;SDS011;32536;47.128;8.746;2022-07-23T04:16:12;4.60;;;2.13;;
46777;SDS011;32536;47.128;8.746;2022-07-23T04:18:39;6.68;;;3.67;;
46777;SDS011;32536;47.128;8.746;2022-07-23T04:21:06;4.80;;;2.78;;
46777;SDS011;32536;47.128;8.746;2022-07-23T04:23:32;5.68;;;3.10;;
46777;SDS011;32536;47.128;8.746;2022-07-23T04:25:59;6.95;;;3.05;;
46777;SDS011;32536;47.128;8.746;2022-07-23T04:28:26;5.10;;;1.92;;
46777;SDS011;32536;47.128;8.746;2022-07-23T04:30:55;4.78;;;2.53;;
46777;SDS011;32536;47.128;8.746;2022-07-23T04:33:23;6.00;;;3.55;;
46777;SDS011;32536;47.128;8.746;2022-07-23T04:35:50;5.50;;;2.78;;
46777;SDS011;32536;47.128;8.746;2022-07-23T04:38:17;4.57;;;2.08;;
46777;SDS011;32536;47.128;8.746;2022-07-23T04:40:43;3.65;;;1.77;;
46777;SDS011;32536;47.128;8.746;2022-07-23T04:43:10;3.80;;;1.73;;
46777;SDS011;32536;47.128;8.746;2022-07-23T04:48:28;3.60;;;1.70;;
46777;SDS011;32536;47.128;8.746;2022-07-23T04:50:55;4.10;;;1.67;;
46777;SDS011;32536;47.128;8.746;2022-07-23T04:53:22;3.40;;;1.70;;
46777;SDS011;32536;47.128;8.746;2022-07-23T04:55:49;4.60;;;2.65;;
46777;SDS011;32536;47.128;8.746;2022-07-23T04:58:16;4.28;;;2.08;;
46777;SDS011;32536;47.128;8.746;2022-07-23T05:00:42;3.85;;;1.77;;
46777;SDS011;32536;47.128;8.746;2022-07-23T05:03:09;3.88;;;1.85;;
46777;SDS011;32536;47.128;8.746;2022-07-23T05:05:36;2.97;;;1.50;;
46777;SDS011;32536;47.128;8.746;2022-07-23T05:08:03;5.63;;;2.72;;
46777;SDS011;32536;47.128;8.746;2022-07-23T05:10:30;4.70;;;2.13;;
46777;SDS011;32536;47.128;8.746;2022-07-23T05:12:57;4.60;;;2.63;;
46777;SDS011;32536;47.128;8.746;2022-07-23T05:15:23;4.30;;;2.33;;
46777;SDS011;32536;47.128;8.746;2022-07-23T05:17:50;5.68;;;2.45;;
46777;SDS011;32536;47.128;8.746;2022-07-23T05:20:17;4.82;;;2.47;;
46777;SDS011;32536;47.128;8.746;2022-07-23T05:22:44;4.00;;;1.92;;
46777;SDS011;32536;47.128;8.746;2022-07-23T05:25:11;3.95;;;1.80;;
46777;SDS011;32536;47.128;8.746;2022-07-23T05:27:37;4.45;;;1.88;;
46777;SDS011;32536;47.128;8.746;2022-07-23T05:30:04;4.35;;;2.03;;
46777;SDS011;32536;47.128;8.746;2022-07-23T05:32:32;4.60;;;2.42;;
46777;SDS011;32536;47.128;8.746;2022-07-23T05:34:59;5.15;;;2.92;;
46777;SDS011;32536;47.128;8.746;2022-07-23T05:37:25;4.57;;;2.42;;
46777;SDS011;32536;47.128;8.746;2022-07-23T05:39:52;4.45;;;1.77;;
46777;SDS011;32536;47.128;8.746;2022-07-23T05:42:19;3.75;;;2.05;;
46777;SDS011;32536;47.128;8.746;2022-07-23T05:44:46;4.88;;;2.75;;
46777;SDS011;32536;47.128;8.746;2022-07-23T05:47:13;6.10;;;2.45;;
46777;SDS011;32536;47.128;8.746;2022-07-23T05:49:40;4.53;;;2.03;;
46777;SDS011;32536;47.128;8.746;2022-07-23T05:52:07;4.63;;;2.33;;
46777;SDS011;32536;47.128;8.746;2022-07-23T05:54:35;5.25;;;2.80;;
46777;SDS011;32536;47.128;8.746;2022-07-23T05:57:02;5.25;;;2.70;;
46777;SDS011;32536;47.128;8.746;2022-07-23T05:59:30;4.63;;;2.55;;
46777;SDS011;32536;47.128;8.746;2022-07-23T06:01:57;5.40;;;2.92;;
46777;SDS011;32536;47.128;8.746;2022-07-23T06:04:24;5.28;;;2.90;;
46777;SDS011;32536;47.128;8.746;2022-07-23T06:06:51;5.43;;;3.03;;
46777;SDS011;32536;47.128;8.746;2022-07-23T06:09:18;4.57;;;2.50;;
46777;SDS011;32536;47.128;8.746;2022-07-23T06:11:45;5.13;;;2.15;;
46777;SDS011;32536;47.128;8.746;2022-07-23T06:14:11;5.10;;;2.83;;
46777;SDS011;32536;47.128;8.746;2022-07-23T06:16:38;4.47;;;2.67;;
46777;SDS011;32536;47.128;8.746;2022-07-23T06:19:05;4.25;;;1.95;;
46777;SDS011;32536;47.128;8.746;2022-07-23T06:21:32;4.90;;;2.40;;
46777;SDS011;32536;47.128;8.746;2022-07-23T06:23:58;5.57;;;3.13;;
46777;SDS011;32536;47.128;8.746;2022-07-23T06:26:25;6.85;;;3.08;;
46777;SDS011;32536;47.128;8.746;2022-07-23T06:28:52;5.10;;;2.65;;
46777;SDS011;32536;47.128;8.746;2022-07-23T06:31:19;4.07;;;1.92;;
46777;SDS011;32536;47.128;8.746;2022-07-23T06:33:45;3.40;;;1.75;;
46777;SDS011;32536;47.128;8.746;2022-07-23T06:36:12;5.80;;;2.00;;
46777;SDS011;32536;47.128;8.746;2022-07-23T06:38:39;4.78;;;2.53;;
46777;SDS011;32536;47.128;8.746;2022-07-23T06:41:06;6.68;;;3.60;;
46777;SDS011;32536;47.128;8.746;2022-07-23T06:43:32;6.82;;;3.63;;
46777;SDS011;32536;47.128;8.746;2022-07-23T06:46:09;5.45;;;2.97;;
46777;SDS011;32536;47.128;8.746;2022-07-23T06:48:35;4.70;;;2.30;;
46777;SDS011;32536;47.128;8.746;2022-07-23T06:51:02;5.15;;;2.25;;
46777;SDS011;32536;47.128;8.746;2022-07-23T06:53:30;3.60;;;1.60;;
46777;SDS011;32536;47.128;8.746;2022-07-23T06:55:57;4.25;;;1.88;;
46777;SDS011;32536;47.128;8.746;2022-07-23T06:58:23;5.00;;;1.98;;
46777;SDS011;32536;47.128;8.746;2022-07-23T07:00:50;3.80;;;1.88;;
46777;SDS011;32536;47.128;8.746;2022-07-23T07:03:17;3.97;;;1.80;;
46777;SDS011;32536;47.128;8.746;2022-07-23T07:05:44;4.80;;;2.03;;
46777;SDS011;32536;47.128;8.746;2022-07-23T07:08:11;6.45;;;3.65;;
46777;SDS011;32536;47.128;8.746;2022-07-23T07:10:38;6.50;;;3.78;;
46777;SDS011;32536;47.128;8.746;2022-07-23T07:13:05;6.60;;;4.43;;
46777;SDS011;32536;47.128;8.746;2022-07-23T07:15:32;5.60;;;3.17;;
46777;SDS011;32536;47.128;8.746;2022-07-23T07:17:59;6.13;;;3.95;;
46777;SDS011;32536;47.128;8.746;2022-07-23T07:20:26;5.38;;;3.10;;
46777;SDS011;32536;47.128;8.746;2022-07-23T07:22:53;4.97;;;2.58;;
46777;SDS011;32536;47.128;8.746;2022-07-23T07:25:19;5.97;;;2.95;;
46777;SDS011;32536;47.128;8.746;2022-07-23T07:27:46;6.13;;;3.17;;
46777;SDS011;32536;47.128;8.746;2022-07-23T07:30:13;4.80;;;2.78;;
46777;SDS011;32536;47.128;8.746;2022-07-23T07:32:40;4.18;;;2.45;;
46777;SDS011;32536;47.128;8.746;2022-07-23T07:35:08;7.43;;;3.30;;
46777;SDS011;32536;47.128;8.746;2022-07-23T07:37:35;5.47;;;1.95;;
46777;SDS011;32536;47.128;8.746;2022-07-23T07:40:02;5.07;;;2.88;;
46777;SDS011;32536;47.128;8.746;2022-07-23T07:42:29;4.18;;;2.17;;
46777;SDS011;32536;47.128;8.746;2022-07-23T07:44:57;3.92;;;1.58;;
46777;SDS011;32536;47.128;8.746;2022-07-23T07:47:25;4.15;;;1.70;;
46777;SDS011;32536;47.128;8.746;2022-07-23T07:49:51;3.95;;;1.95;;
46777;SDS011;32536;47.128;8.746;2022-07-23T07:52:18;3.83;;;2.22;;
46777;SDS011;32536;47.128;8.746;2022-07-23T07:54:45;4.25;;;2.30;;
46777;SDS011;32536;47.128;8.746;2022-07-23T07:57:12;4.63;;;2.28;;
46777;SDS011;32536;47.128;8.746;2022-07-23T07:59:38;4.47;;;2.25;;
46777;SDS011;32536;47.128;8.746;2022-07-23T08:02:05;6.03;;;2.28;;
46777;SDS011;32536;47.128;8.746;2022-07-23T08:04:32;4.05;;;1.70;;
46777;SDS011;32536;47.128;8.746;2022-07-23T08:06:59;3.90;;;2.03;;
46777;SDS011;32536;47.128;8.746;2022-07-23T08:09:25;3.78;;;2.08;;
46777;SDS011;32536;47.128;8.746;2022-07-23T08:11:52;5.38;;;2.58;;
46777;SDS011;32536;47.128;8.746;2022-07-23T08:14:19;4.03;;;2.00;;
46777;SDS011;32536;47.128;8.746;2022-07-23T08:16:46;3.97;;;2.13;;
46777;SDS011;32536;47.128;8.746;2022-07-23T08:19:13;4.28;;;2.35;;
46777;SDS011;32536;47.128;8.746;2022-07-23T08:21:39;3.80;;;1.70;;
46777;SDS011;32536;47.128;8.746;2022-07-23T08:24:06;4.97;;;2.63;;
46777;SDS011;32536;47.128;8.746;2022-07-23T08:26:33;4.47;;;2.40;;
46777;SDS011;32536;47.128;8.746;2022-07-23T08:29:00;3.85;;;1.77;;
46777;SDS011;32536;47.128;8.746;2022-07-23T08:31:26;5.03;;;2.08;;
46777;SDS011;32536;47.128;8.746;2022-07-23T08:33:53;4.30;;;2.20;;
46777;SDS011;32536;47.128;8.746;2022-07-23T08:36:22;4.22;;;1.85;;
46777;SDS011;32536;47.128;8.746;2022-07-23T08:38:48;4.35;;;2.33;;
46777;SDS011;32536;47.128;8.746;2022-07-23T08:41:15;6.05;;;3.42;;
46777;SDS011;32536;47.128;8.746;2022-07-23T08:43:42;4.55;;;2.72;;
46777;SDS011;32536;47.128;8.746;2022-07-23T08:46:16;3.70;;;1.50;;
46777;SDS011;32536;47.128;8.746;2022-07-23T08:48:47;4.03;;;1.77;;
46777;SDS011;32536;47.128;8.746;2022-07-23T08:51:15;3.50;;;1.67;;
46777;SDS011;32536;47.128;8.746;2022-07-23T08:53:42;3.70;;;1.20;;
46777;SDS011;32536;47.128;8.746;2022-07-23T08:56:10;3.47;;;1.83;;
46777;SDS011;32536;47.128;8.746;2022-07-23T08:58:37;4.20;;;2.05;;
46777;SDS011;32536;47.128;8.746;2022-07-23T09:01:04;3.72;;;1.83;;
46777;SDS011;32536;47.128;8.746;2022-07-23T09:03:32;4.00;;;1.80;;
46777;SDS011;32536;47.128;8.746;2022-07-23T09:06:01;4.03;;;1.45;;
46777;SDS011;32536;47.128;8.746;2022-07-23T09:08:36;3.35;;;1.73;;
46777;SDS011;32536;47.128;8.746;2022-07-23T09:11:05;3.63;;;1.83;;
46777;SDS011;32536;47.128;8.746;2022-07-23T09:13:41;4.15;;;2.15;;
46777;SDS011;32536;47.128;8.746;2022-07-23T09:16:23;5.10;;;1.98;;
46777;SDS011;32536;47.128;8.746;2022-07-23T09:19:01;3.92;;;1.20;;
46777;SDS011;32536;47.128;8.746;2022-07-23T09:24:06;3.65;;;1.88;;
46777;SDS011;32536;47.128;8.746;2022-07-23T09:26:36;3.75;;;1.40;;
46777;SDS011;32536;47.128;8.746;2022-07-23T09:34:25;5.68;;;3.03;;
46777;SDS011;32536;47.128;8.746;2022-07-23T09:37:10;4.45;;;1.75;;
46777;SDS011;32536;47.128;8.746;2022-07-23T09:39:43;4.35;;;1.98;;
46777;SDS011;32536;47.128;8.746;2022-07-23T09:42:18;3.85;;;1.65;;
46777;SDS011;32536;47.128;8.746;2022-07-23T09:44:53;3.78;;;1.60;;
46777;SDS011;32536;47.128;8.746;2022-07-23T09:47:22;3.72;;;1.50;;
46777;SDS011;32536;47.128;8.746;2022-07-23T09:52:35;5.65;;;2.60;;
46777;SDS011;32536;47.128;8.746;2022-07-23T09:55:09;4.47;;;1.73;;
46777;SDS011;32536;47.128;8.746;2022-07-23T09:57:37;3.22;;;1.42;;
46777;SDS011;32536;47.128;8.746;2022-07-23T10:00:19;3.33;;;1.38;;
46777;SDS011;32536;47.128;8.746;2022-07-23T10:02:46;4.43;;;2.22;;
46777;SDS011;32536;47.128;8.746;2022-07-23T10:05:13;3.75;;;1.77;;
46777;SDS011;32536;47.128;8.746;2022-07-23T10:07:41;3.90;;;1.70;;
46777;SDS011;32536;47.128;8.746;2022-07-23T10:10:09;4.53;;;1.70;;
46777;SDS011;32536;47.128;8.746;2022-07-23T10:12:36;4.32;;;1.70;;
46777;SDS011;32536;47.128;8.746;2022-07-23T10:15:23;3.50;;;1.23;;
46777;SDS011;32536;47.128;8.746;2022-07-23T10:17:51;3.45;;;2.20;;
46777;SDS011;32536;47.128;8.746;2022-07-23T10:20:18;5.90;;;3.17;;
46777;SDS011;32536;47.128;8.746;2022-07-23T10:22:50;5.22;;;2.78;;
46777;SDS011;32536;47.128;8.746;2022-07-23T10:28:16;5.50;;;2.88;;
46777;SDS011;32536;47.128;8.746;2022-07-23T10:31:07;4.88;;;1.95;;
46777;SDS011;32536;47.128;8.746;2022-07-23T10:34:19;3.20;;;1.33;;
46777;SDS011;32536;47.128;8.746;2022-07-23T10:37:16;4.28;;;2.13;;
46777;SDS011;32536;47.128;8.746;2022-07-23T10:42:58;6.38;;;3.72;;
46777;SDS011;32536;47.128;8.746;2022-07-23T10:45:33;5.53;;;3.05;;
46777;SDS011;32536;47.128;8.746;2022-07-23T10:50:42;7.32;;;4.75;;
46777;SDS011;32536;47.128;8.746;2022-07-23T10:53:52;6.20;;;3.42;;
46777;SDS011;32536;47.128;8.746;2022-07-23T10:59:31;7.70;;;4.90;;
46777;SDS011;32536;47.128;8.746;2022-07-23T11:02:21;9.15;;;5.32;;
46777;SDS011;32536;47.128;8.746;2022-07-23T11:04:50;6.88;;;4.03;;
46777;SDS011;32536;47.128;8.746;2022-07-23T11:07:18;8.82;;;6.15;;
46777;SDS011;32536;47.128;8.746;2022-07-23T11:09:45;8.90;;;5.85;;
46777;SDS011;32536;47.128;8.746;2022-07-23T11:22:37;7.43;;;4.95;;
46777;SDS011;32536;47.128;8.746;2022-07-23T11:25:06;5.65;;;3.13;;
46777;SDS011;32536;47.128;8.746;2022-07-23T11:27:36;7.13;;;3.85;;
46777;SDS011;32536;47.128;8.746;2022-07-23T11:30:08;8.75;;;5.00;;
46777;SDS011;32536;47.128;8.746;2022-07-23T11:32:40;6.35;;;3.80;;
46777;SDS011;32536;47.128;8.746;2022-07-23T11:37:49;8.40;;;5.85;;
46777;SDS011;32536;47.128;8.746;2022-07-23T11:40:19;8.68;;;5.32;;
46777;SDS011;32536;47.128;8.746;2022-07-23T11:42:54;8.85;;;5.20;;
46777;SDS011;32536;47.128;8.746;2022-07-23T11:45:22;8.32;;;4.70;;
46777;SDS011;32536;47.128;8.746;2022-07-23T11:47:55;6.38;;;3.75;;
46777;SDS011;32536;47.128;8.746;2022-07-23T11:50:23;8.23;;;5.82;;
46777;SDS011;32536;47.128;8.746;2022-07-23T11:52:54;7.60;;;5.38;;
46777;SDS011;32536;47.128;8.746;2022-07-23T11:55:21;6.40;;;3.95;;
46777;SDS011;32536;47.128;8.746;2022-07-23T11:57:48;6.45;;;3.60;;
46777;SDS011;32536;47.128;8.746;2022-07-23T12:00:22;5.65;;;3.08;;
46777;SDS011;32536;47.128;8.746;2022-07-23T12:02:52;6.68;;;3.88;;
46777;SDS011;32536;47.128;8.746;2022-07-23T12:05:25;5.20;;;3.40;;
46777;SDS011;32536;47.128;8.746;2022-07-23T12:07:58;8.48;;;5.38;;
46777;SDS011;32536;47.128;8.746;2022-07-23T12:10:39;8.10;;;4.32;;
46777;SDS011;32536;47.128;8.746;2022-07-23T12:13:09;6.43;;;3.35;;
46777;SDS011;32536;47.128;8.746;2022-07-23T12:15:45;4.95;;;2.83;;
46777;SDS011;32536;47.128;8.746;2022-07-23T12:18:23;4.15;;;2.00;;
46777;SDS011;32536;47.128;8.746;2022-07-23T12:20:53;4.40;;;2.30;;
46777;SDS011;32536;47.128;8.746;2022-07-23T12:23:23;4.57;;;1.80;;
46777;SDS011;32536;47.128;8.746;2022-07-23T12:25:51;5.97;;;3.78;;
46777;SDS011;32536;47.128;8.746;2022-07-23T12:28:21;5.82;;;2.20;;
46777;SDS011;32536;47.128;8.746;2022-07-23T12:30:55;5.85;;;2.35;;
46777;SDS011;32536;47.128;8.746;2022-07-23T12:33:34;4.20;;;1.95;;
46777;SDS011;32536;47.128;8.746;2022-07-23T12:36:06;4.25;;;2.00;;
46777;SDS011;32536;47.128;8.746;2022-07-23T12:38:38;4.20;;;1.80;;
46777;SDS011;32536;47.128;8.746;2022-07-23T12:41:09;5.35;;;3.15;;
46777;SDS011;32536;47.128;8.746;2022-07-23T12:43:37;4.63;;;2.05;;
46777;SDS011;32536;47.128;8.746;2022-07-23T12:49:00;3.55;;;1.60;;
46777;SDS011;32536;47.128;8.746;2022-07-23T12:51:27;4.00;;;2.17;;
46777;SDS011;32536;47.128;8.746;2022-07-23T12:54:05;3.63;;;1.88;;
46777;SDS011;32536;47.128;8.746;2022-07-23T12:59:07;4.18;;;1.95;;
46777;SDS011;32536;47.128;8.746;2022-07-23T13:01:36;6.03;;;3.17;;
46777;SDS011;32536;47.128;8.746;2022-07-23T13:06:44;5.05;;;2.63;;
46777;SDS011;32536;47.128;8.746;2022-07-23T13:09:20;4.63;;;2.35;;
46777;SDS011;32536;47.128;8.746;2022-07-23T13:11:50;5.90;;;3.97;;
46777;SDS011;32536;47.128;8.746;2022-07-23T13:14:20;5.25;;;2.78;;
46777;SDS011;32536;47.128;8.746;2022-07-23T13:16:48;4.70;;;2.42;;
46777;SDS011;32536;47.128;8.746;2022-07-23T13:19:17;4.90;;;2.40;;
46777;SDS011;32536;47.128;8.746;2022-07-23T13:21:45;5.00;;;2.80;;
46777;SDS011;32536;47.128;8.746;2022-07-23T13:24:12;5.28;;;2.67;;
46777;SDS011;32536;47.128;8.746;2022-07-23T13:26:39;4.90;;;2.55;;
46777;SDS011;32536;47.128;8.746;2022-07-23T13:29:07;4.38;;;2.58;;
46777;SDS011;32536;47.128;8.746;2022-07-23T13:31:34;6.80;;;3.47;;
46777;SDS011;32536;47.128;8.746;2022-07-23T13:34:03;5.45;;;2.83;;
46777;SDS011;32536;47.128;8.746;2022-07-23T13:36:31;4.72;;;2.75;;
46777;SDS011;32536;47.128;8.746;2022-07-23T13:38:57;5.03;;;2.38;;
46777;SDS011;32536;47.128;8.746;2022-07-23T13:41:24;4.50;;;2.38;;
46777;SDS011;32536;47.128;8.746;2022-07-23T13:43:51;4.07;;;2.25;;
46777;SDS011;32536;47.128;8.746;2022-07-23T13:46:34;4.47;;;2.25;;
46777;SDS011;32536;47.128;8.746;2022-07-23T13:49:01;4.10;;;1.98;;
46777;SDS011;32536;47.128;8.746;2022-07-23T13:51:28;4.53;;;2.28;;
46777;SDS011;32536;47.128;8.746;2022-07-23T13:53:55;4.18;;;2.20;;
46777;SDS011;32536;47.128;8.746;2022-07-23T13:56:24;5.75;;;2.75;;
46777;SDS011;32536;47.128;8.746;2022-07-23T13:58:51;5.03;;;2.53;;
46777;SDS011;32536;47.128;8.746;2022-07-23T14:01:18;4.20;;;2.05;;
46777;SDS011;32536;47.128;8.746;2022-07-23T14:03:45;4.25;;;2.17;;
46777;SDS011;32536;47.128;8.746;2022-07-23T14:06:11;3.65;;;1.65;;
46777;SDS011;32536;47.128;8.746;2022-07-23T14:08:38;6.47;;;3.35;;
46777;SDS011;32536;47.128;8.746;2022-07-23T14:11:05;5.70;;;3.17;;
46777;SDS011;32536;47.128;8.746;2022-07-23T14:13:32;5.22;;;2.70;;
46777;SDS011;32536;47.128;8.746;2022-07-23T14:15:58;6.03;;;3.67;;
46777;SDS011;32536;47.128;8.746;2022-07-23T14:18:25;7.95;;;5.13;;
46777;SDS011;32536;47.128;8.746;2022-07-23T14:20:52;8.27;;;5.93;;
46777;SDS011;32536;47.128;8.746;2022-07-23T14:23:19;7.20;;;4.70;;
46777;SDS011;32536;47.128;8.746;2022-07-23T14:25:45;7.90;;;4.75;;
46777;SDS011;32536;47.128;8.746;2022-07-23T14:28:12;7.35;;;5.10;;
46777;SDS011;32536;47.128;8.746;2022-07-23T14:30:39;7.68;;;3.88;;
46777;SDS011;32536;47.128;8.746;2022-07-23T14:33:06;5.40;;;2.80;;
46777;SDS011;32536;47.128;8.746;2022-07-23T14:35:32;6.07;;;3.50;;
46777;SDS011;32536;47.128;8.746;2022-07-23T14:37:59;5.43;;;2.85;;
46777;SDS011;32536;47.128;8.746;2022-07-23T14:40:26;4.20;;;2.00;;
46777;SDS011;32536;47.128;8.746;2022-07-23T14:42:53;4.72;;;2.33;;
46777;SDS011;32536;47.128;8.746;2022-07-23T14:45:19;4.72;;;2.03;;
46777;SDS011;32536;47.128;8.746;2022-07-23T14:47:46;6.40;;;3.95;;
46777;SDS011;32536;47.128;8.746;2022-07-23T14:50:13;7.05;;;4.72;;
46777;SDS011;32536;47.128;8.746;2022-07-23T14:52:41;7.38;;;4.93;;
46777;SDS011;32536;47.128;8.746;2022-07-23T14:55:07;7.28;;;5.68;;
46777;SDS011;32536;47.128;8.746;2022-07-23T14:57:35;6.38;;;3.90;;
46777;SDS011;32536;47.128;8.746;2022-07-23T15:00:03;4.95;;;2.58;;
46777;SDS011;32536;47.128;8.746;2022-07-23T15:02:32;4.85;;;2.35;;
46777;SDS011;32536;47.128;8.746;2022-07-23T15:04:58;4.47;;;2.40;;
46777;SDS011;32536;47.128;8.746;2022-07-23T15:07:28;4.88;;;2.67;;
46777;SDS011;32536;47.128;8.746;2022-07-23T15:09:56;4.82;;;2.22;;
46777;SDS011;32536;47.128;8.746;2022-07-23T15:12:24;4.63;;;1.83;;
46777;SDS011;32536;47.128;8.746;2022-07-23T15:14:51;3.72;;;1.48;;
46777;SDS011;32536;47.128;8.746;2022-07-23T15:17:18;4.30;;;2.17;;
46777;SDS011;32536;47.128;8.746;2022-07-23T15:19:45;4.47;;;1.98;;
46777;SDS011;32536;47.128;8.746;2022-07-23T15:22:11;4.20;;;2.20;;
46777;SDS011;32536;47.128;8.746;2022-07-23T15:24:39;4.65;;;2.13;;
46777;SDS011;32536;47.128;8.746;2022-07-23T15:27:06;6.32;;;2.33;;
46777;SDS011;32536;47.128;8.746;2022-07-23T15:29:33;4.05;;;1.58;;
46777;SDS011;32536;47.128;8.746;2022-07-23T15:32:00;4.22;;;2.10;;
46777;SDS011;32536;47.128;8.746;2022-07-23T15:34:27;3.88;;;1.88;;
46777;SDS011;32536;47.128;8.746;2022-07-23T15:36:54;4.10;;;2.00;;
46777;SDS011;32536;47.128;8.746;2022-07-23T15:39:21;3.80;;;1.40;;
46777;SDS011;32536;47.128;8.746;2022-07-23T15:41:47;4.45;;;2.25;;